George Bush Intercontinental Houston Airport
KIAH : now visible

Airfield :











YOU CAN JOIN US ON...

 
LOGIN :

Register | Disclaimer

   EN    FR    IT 

 









Legend :    VFR   Marginal VFR   IFR   Intensive IFR   Very Intensive IFR
Visi :
Ceiling :
>= 8 km
>= 3000ft
5 to 8 km
1000 to 3000 ft
1500m to 5 km
500 to 1000 ft
800 to 1500m
200 to 500 ft
< 800m
< 200 ft
Symbols :   Thunderstorms  Fog  Heavy snow  Heavy precipitations  Wind > 20 kt






- Airport Elevation : 97 ft
- IATA code : IAH


KIAH - George Bush Intercontinental Houston

CURRENT METAR :
  • 082053Z 18009KT 10SM SCT037 BKN250 23/14 A2995 RMK AO2 SLP143 T02330139 56037

EXPIRED METARs :
  • 081953Z 17008KT 10SM SCT032 BKN250 22/14 A2998 RMK AO2 SLP152 T02220144
  • 081933Z 18010KT 10SM BKN032 BKN250 22/14 A2999 RMK AO2 T02220144
  • 081853Z 17011G16KT 10SM BKN027 BKN250 22/14 A3002 RMK AO2 SLP167 T02170144

TAF KIAH
Valid from the 08 at 18:00 until the 10 at 00:00 UTC


081740Z 0818/0924 14008KT P6SM FEW025 SCT250
FM090600 19006KT P6SM SCT005 BKN035
FM090900 19004KT P6SM SCT003 BKN020
TEMPO 0909/0913 4SM BR SCT008 OVC015
FM091600 22007KT P6SM BKN035
FM092100 21008KT P6SM BKN050



MET'MAP, your aeronautical weather chart ! - Copyright ORBIFLY December 2007 - Disclaimer

ORBIFLY MET'MAP TEAM :

Programming & Development : Alexandra Zaïnal
Concept & original design : Baudouin d'Aumeries
Assistance for programming : Marc-Olivier Méhu
Technical & hardware support : Manuel Goepfert

Contact : metmap@orbifly.com




SOURCES & CREDITS :

   NOAA       Earth
Advisory